sensor_id;sensor_type;location;lat;lon;timestamp;P1;durP1;ratioP1;P2;durP2;ratioP2
17251;SDS011;8742;51.716;8.790;2023-04-25T00:02:08;13.37;;;6.27;;
17251;SDS011;8742;51.716;8.790;2023-04-25T00:04:36;21.53;;;7.33;;
17251;SDS011;8742;51.716;8.790;2023-04-25T00:07:03;18.47;;;6.93;;
17251;SDS011;8742;51.716;8.790;2023-04-25T00:09:31;17.63;;;6.10;;
17251;SDS011;8742;51.716;8.790;2023-04-25T00:11:58;20.87;;;6.33;;
17251;SDS011;8742;51.716;8.790;2023-04-25T00:14:26;18.57;;;5.77;;
17251;SDS011;8742;51.716;8.790;2023-04-25T00:16:53;14.17;;;5.93;;
17251;SDS011;8742;51.716;8.790;2023-04-25T00:19:20;22.07;;;6.63;;
17251;SDS011;8742;51.716;8.790;2023-04-25T00:21:48;22.13;;;5.87;;
17251;SDS011;8742;51.716;8.790;2023-04-25T00:24:15;22.67;;;6.03;;
17251;SDS011;8742;51.716;8.790;2023-04-25T00:26:42;18.90;;;5.70;;
17251;SDS011;8742;51.716;8.790;2023-04-25T00:29:09;17.50;;;6.33;;
17251;SDS011;8742;51.716;8.790;2023-04-25T00:31:35;18.73;;;6.00;;
17251;SDS011;8742;51.716;8.790;2023-04-25T00:34:02;15.53;;;6.13;;
17251;SDS011;8742;51.716;8.790;2023-04-25T00:36:29;17.93;;;6.07;;
17251;SDS011;8742;51.716;8.790;2023-04-25T00:38:57;17.90;;;6.17;;
17251;SDS011;8742;51.716;8.790;2023-04-25T00:41:25;16.17;;;6.57;;
17251;SDS011;8742;51.716;8.790;2023-04-25T00:43:52;20.17;;;6.20;;
17251;SDS011;8742;51.716;8.790;2023-04-25T00:46:20;17.63;;;6.93;;
17251;SDS011;8742;51.716;8.790;2023-04-25T00:48:47;22.53;;;6.83;;
17251;SDS011;8742;51.716;8.790;2023-04-25T00:51:16;13.67;;;6.00;;
17251;SDS011;8742;51.716;8.790;2023-04-25T00:53:45;14.03;;;6.90;;
17251;SDS011;8742;51.716;8.790;2023-04-25T00:56:14;18.80;;;6.87;;
17251;SDS011;8742;51.716;8.790;2023-04-25T00:58:41;15.33;;;7.17;;
17251;SDS011;8742;51.716;8.790;2023-04-25T01:01:08;18.73;;;7.47;;
17251;SDS011;8742;51.716;8.790;2023-04-25T01:03:37;19.07;;;7.60;;
17251;SDS011;8742;51.716;8.790;2023-04-25T01:06:07;24.17;;;7.83;;
17251;SDS011;8742;51.716;8.790;2023-04-25T01:08:35;22.67;;;8.57;;
17251;SDS011;8742;51.716;8.790;2023-04-25T01:11:03;16.10;;;7.30;;
17251;SDS011;8742;51.716;8.790;2023-04-25T01:13:32;26.40;;;8.57;;
17251;SDS011;8742;51.716;8.790;2023-04-25T01:15:59;26.30;;;8.37;;
17251;SDS011;8742;51.716;8.790;2023-04-25T01:18:26;18.73;;;8.27;;
17251;SDS011;8742;51.716;8.790;2023-04-25T01:20:53;23.83;;;9.23;;
17251;SDS011;8742;51.716;8.790;2023-04-25T01:23:22;23.80;;;8.30;;
17251;SDS011;8742;51.716;8.790;2023-04-25T01:25:49;22.57;;;8.70;;
17251;SDS011;8742;51.716;8.790;2023-04-25T01:28:17;24.70;;;9.33;;
17251;SDS011;8742;51.716;8.790;2023-04-25T01:30:44;24.77;;;10.77;;
17251;SDS011;8742;51.716;8.790;2023-04-25T01:33:12;25.97;;;9.37;;
17251;SDS011;8742;51.716;8.790;2023-04-25T01:35:40;29.53;;;13.43;;
17251;SDS011;8742;51.716;8.790;2023-04-25T01:38:07;33.47;;;10.67;;
17251;SDS011;8742;51.716;8.790;2023-04-25T01:40:36;22.83;;;8.43;;
17251;SDS011;8742;51.716;8.790;2023-04-25T01:43:06;36.43;;;9.70;;
17251;SDS011;8742;51.716;8.790;2023-04-25T01:45:36;25.03;;;9.60;;
17251;SDS011;8742;51.716;8.790;2023-04-25T01:48:05;28.13;;;9.80;;
17251;SDS011;8742;51.716;8.790;2023-04-25T01:50:32;26.80;;;9.17;;
17251;SDS011;8742;51.716;8.790;2023-04-25T01:52:59;28.70;;;10.30;;
17251;SDS011;8742;51.716;8.790;2023-04-25T01:55:26;23.40;;;8.77;;
17251;SDS011;8742;51.716;8.790;2023-04-25T01:57:55;30.60;;;9.90;;
17251;SDS011;8742;51.716;8.790;2023-04-25T02:00:22;26.73;;;9.07;;
17251;SDS011;8742;51.716;8.790;2023-04-25T02:02:49;21.57;;;9.27;;
17251;SDS011;8742;51.716;8.790;2023-04-25T02:05:18;23.93;;;9.57;;
17251;SDS011;8742;51.716;8.790;2023-04-25T02:07:45;21.43;;;9.87;;
17251;SDS011;8742;51.716;8.790;2023-04-25T02:10:12;27.13;;;10.57;;
17251;SDS011;8742;51.716;8.790;2023-04-25T02:12:39;29.53;;;10.23;;
17251;SDS011;8742;51.716;8.790;2023-04-25T02:15:08;21.87;;;10.07;;
17251;SDS011;8742;51.716;8.790;2023-04-25T02:17:35;29.77;;;11.27;;
17251;SDS011;8742;51.716;8.790;2023-04-25T02:20:02;21.93;;;10.40;;
17251;SDS011;8742;51.716;8.790;2023-04-25T02:22:30;35.63;;;11.33;;
17251;SDS011;8742;51.716;8.790;2023-04-25T02:24:59;29.23;;;10.80;;
17251;SDS011;8742;51.716;8.790;2023-04-25T02:27:25;28.90;;;11.17;;
17251;SDS011;8742;51.716;8.790;2023-04-25T02:29:52;25.40;;;11.13;;
17251;SDS011;8742;51.716;8.790;2023-04-25T02:32:20;33.37;;;12.40;;
17251;SDS011;8742;51.716;8.790;2023-04-25T02:34:47;35.87;;;12.73;;
17251;SDS011;8742;51.716;8.790;2023-04-25T02:37:14;28.27;;;12.47;;
17251;SDS011;8742;51.716;8.790;2023-04-25T02:39:41;24.27;;;11.23;;
17251;SDS011;8742;51.716;8.790;2023-04-25T02:42:07;27.97;;;12.03;;
17251;SDS011;8742;51.716;8.790;2023-04-25T02:44:34;27.53;;;11.60;;
17251;SDS011;8742;51.716;8.790;2023-04-25T02:47:01;35.67;;;13.20;;
17251;SDS011;8742;51.716;8.790;2023-04-25T02:49:29;26.60;;;12.50;;
17251;SDS011;8742;51.716;8.790;2023-04-25T02:51:56;27.63;;;12.23;;
17251;SDS011;8742;51.716;8.790;2023-04-25T02:54:23;31.93;;;12.90;;
17251;SDS011;8742;51.716;8.790;2023-04-25T02:56:50;32.83;;;12.70;;
17251;SDS011;8742;51.716;8.790;2023-04-25T02:59:17;28.50;;;13.47;;
17251;SDS011;8742;51.716;8.790;2023-04-25T03:01:44;32.57;;;13.43;;
17251;SDS011;8742;51.716;8.790;2023-04-25T03:04:11;34.80;;;14.13;;
17251;SDS011;8742;51.716;8.790;2023-04-25T03:06:39;29.33;;;12.60;;
17251;SDS011;8742;51.716;8.790;2023-04-25T03:09:06;30.50;;;13.57;;
17251;SDS011;8742;51.716;8.790;2023-04-25T03:11:33;29.33;;;13.20;;
17251;SDS011;8742;51.716;8.790;2023-04-25T03:14:00;27.17;;;13.80;;
17251;SDS011;8742;51.716;8.790;2023-04-25T03:16:26;29.80;;;14.10;;
17251;SDS011;8742;51.716;8.790;2023-04-25T03:18:53;28.73;;;14.50;;
17251;SDS011;8742;51.716;8.790;2023-04-25T03:21:20;31.03;;;12.90;;
17251;SDS011;8742;51.716;8.790;2023-04-25T03:23:48;25.77;;;13.47;;
17251;SDS011;8742;51.716;8.790;2023-04-25T03:26:15;22.73;;;12.10;;
17251;SDS011;8742;51.716;8.790;2023-04-25T03:28:42;27.23;;;12.23;;
17251;SDS011;8742;51.716;8.790;2023-04-25T03:31:08;24.60;;;12.40;;
17251;SDS011;8742;51.716;8.790;2023-04-25T03:33:35;22.67;;;11.17;;
17251;SDS011;8742;51.716;8.790;2023-04-25T03:36:02;26.97;;;12.13;;
17251;SDS011;8742;51.716;8.790;2023-04-25T03:38:29;24.83;;;10.57;;
17251;SDS011;8742;51.716;8.790;2023-04-25T03:40:57;24.87;;;11.43;;
17251;SDS011;8742;51.716;8.790;2023-04-25T03:43:24;21.33;;;11.37;;
17251;SDS011;8742;51.716;8.790;2023-04-25T03:45:51;31.83;;;12.63;;
17251;SDS011;8742;51.716;8.790;2023-04-25T03:48:18;23.60;;;11.10;;
17251;SDS011;8742;51.716;8.790;2023-04-25T03:50:46;26.37;;;12.50;;
17251;SDS011;8742;51.716;8.790;2023-04-25T03:53:13;25.00;;;11.33;;
17251;SDS011;8742;51.716;8.790;2023-04-25T03:55:40;27.20;;;12.30;;
17251;SDS011;8742;51.716;8.790;2023-04-25T03:58:08;24.73;;;11.97;;
17251;SDS011;8742;51.716;8.790;2023-04-25T04:00:35;25.13;;;11.90;;
17251;SDS011;8742;51.716;8.790;2023-04-25T04:03:02;27.10;;;12.37;;
17251;SDS011;8742;51.716;8.790;2023-04-25T04:05:29;21.77;;;10.67;;
17251;SDS011;8742;51.716;8.790;2023-04-25T04:07:56;19.87;;;9.40;;
17251;SDS011;8742;51.716;8.790;2023-04-25T04:10:22;25.23;;;8.90;;
17251;SDS011;8742;51.716;8.790;2023-04-25T04:12:51;21.83;;;8.80;;
17251;SDS011;8742;51.716;8.790;2023-04-25T04:15:19;20.40;;;8.33;;
17251;SDS011;8742;51.716;8.790;2023-04-25T04:17:46;23.47;;;9.03;;
17251;SDS011;8742;51.716;8.790;2023-04-25T04:20:13;24.30;;;8.27;;
17251;SDS011;8742;51.716;8.790;2023-04-25T04:22:40;16.23;;;7.87;;
17251;SDS011;8742;51.716;8.790;2023-04-25T04:25:07;29.23;;;8.83;;
17251;SDS011;8742;51.716;8.790;2023-04-25T04:27:36;20.00;;;7.37;;
17251;SDS011;8742;51.716;8.790;2023-04-25T04:30:04;22.80;;;7.93;;
17251;SDS011;8742;51.716;8.790;2023-04-25T04:32:34;25.37;;;8.77;;
17251;SDS011;8742;51.716;8.790;2023-04-25T04:35:02;18.00;;;8.03;;
17251;SDS011;8742;51.716;8.790;2023-04-25T04:37:31;32.77;;;8.33;;
17251;SDS011;8742;51.716;8.790;2023-04-25T04:39:58;21.87;;;8.70;;
17251;SDS011;8742;51.716;8.790;2023-04-25T04:42:30;27.47;;;10.40;;
17251;SDS011;8742;51.716;8.790;2023-04-25T04:44:56;23.97;;;9.47;;
17251;SDS011;8742;51.716;8.790;2023-04-25T04:47:23;20.20;;;9.47;;
17251;SDS011;8742;51.716;8.790;2023-04-25T04:49:52;27.87;;;10.57;;
17251;SDS011;8742;51.716;8.790;2023-04-25T04:52:19;25.90;;;9.00;;
17251;SDS011;8742;51.716;8.790;2023-04-25T04:54:45;31.87;;;10.83;;
17251;SDS011;8742;51.716;8.790;2023-04-25T04:57:12;35.90;;;11.57;;
17251;SDS011;8742;51.716;8.790;2023-04-25T04:59:39;28.30;;;10.30;;
17251;SDS011;8742;51.716;8.790;2023-04-25T05:02:06;34.10;;;10.93;;
17251;SDS011;8742;51.716;8.790;2023-04-25T05:04:33;27.67;;;9.57;;
17251;SDS011;8742;51.716;8.790;2023-04-25T05:07:01;33.37;;;9.77;;
17251;SDS011;8742;51.716;8.790;2023-04-25T05:09:28;29.17;;;9.60;;
17251;SDS011;8742;51.716;8.790;2023-04-25T05:11:55;26.93;;;9.67;;
17251;SDS011;8742;51.716;8.790;2023-04-25T05:14:21;24.30;;;9.23;;
17251;SDS011;8742;51.716;8.790;2023-04-25T05:16:48;34.33;;;8.97;;
17251;SDS011;8742;51.716;8.790;2023-04-25T05:19:15;36.50;;;9.03;;
17251;SDS011;8742;51.716;8.790;2023-04-25T05:21:42;27.90;;;9.17;;
17251;SDS011;8742;51.716;8.790;2023-04-25T05:24:10;23.90;;;8.80;;
17251;SDS011;8742;51.716;8.790;2023-04-25T05:26:37;24.63;;;8.33;;
17251;SDS011;8742;51.716;8.790;2023-04-25T05:29:04;33.87;;;9.30;;
17251;SDS011;8742;51.716;8.790;2023-04-25T05:31:31;33.63;;;8.57;;
17251;SDS011;8742;51.716;8.790;2023-04-25T05:33:58;28.53;;;8.80;;
17251;SDS011;8742;51.716;8.790;2023-04-25T05:36:25;25.97;;;8.80;;
17251;SDS011;8742;51.716;8.790;2023-04-25T05:38:52;30.03;;;9.33;;
17251;SDS011;8742;51.716;8.790;2023-04-25T05:41:20;24.67;;;8.30;;
17251;SDS011;8742;51.716;8.790;2023-04-25T05:43:47;29.00;;;7.60;;
17251;SDS011;8742;51.716;8.790;2023-04-25T05:46:14;25.97;;;7.80;;
17251;SDS011;8742;51.716;8.790;2023-04-25T05:48:42;24.10;;;7.77;;
17251;SDS011;8742;51.716;8.790;2023-04-25T05:51:09;27.87;;;9.00;;
17251;SDS011;8742;51.716;8.790;2023-04-25T05:53:36;30.13;;;8.30;;
17251;SDS011;8742;51.716;8.790;2023-04-25T05:56:03;35.07;;;7.47;;
17251;SDS011;8742;51.716;8.790;2023-04-25T05:58:31;21.47;;;7.90;;
17251;SDS011;8742;51.716;8.790;2023-04-25T06:00:58;31.63;;;8.33;;
17251;SDS011;8742;51.716;8.790;2023-04-25T06:03:25;31.40;;;8.83;;
17251;SDS011;8742;51.716;8.790;2023-04-25T06:05:52;21.20;;;7.50;;
17251;SDS011;8742;51.716;8.790;2023-04-25T06:08:19;34.83;;;8.03;;
17251;SDS011;8742;51.716;8.790;2023-04-25T06:10:45;30.90;;;7.50;;
17251;SDS011;8742;51.716;8.790;2023-04-25T06:13:12;25.17;;;7.30;;
17251;SDS011;8742;51.716;8.790;2023-04-25T06:15:41;30.47;;;8.03;;
17251;SDS011;8742;51.716;8.790;2023-04-25T06:18:08;25.73;;;7.30;;
17251;SDS011;8742;51.716;8.790;2023-04-25T06:20:35;27.07;;;7.53;;
17251;SDS011;8742;51.716;8.790;2023-04-25T06:23:02;33.17;;;6.90;;
17251;SDS011;8742;51.716;8.790;2023-04-25T06:25:29;33.23;;;7.00;;
17251;SDS011;8742;51.716;8.790;2023-04-25T06:27:55;26.73;;;6.87;;
17251;SDS011;8742;51.716;8.790;2023-04-25T06:30:22;24.63;;;6.40;;
17251;SDS011;8742;51.716;8.790;2023-04-25T06:32:52;24.57;;;6.90;;
17251;SDS011;8742;51.716;8.790;2023-04-25T06:35:19;24.87;;;6.20;;
17251;SDS011;8742;51.716;8.790;2023-04-25T06:37:45;21.27;;;6.73;;
17251;SDS011;8742;51.716;8.790;2023-04-25T06:40:12;26.73;;;6.03;;
17251;SDS011;8742;51.716;8.790;2023-04-25T06:42:40;21.90;;;6.00;;
17251;SDS011;8742;51.716;8.790;2023-04-25T06:45:07;24.87;;;5.87;;
17251;SDS011;8742;51.716;8.790;2023-04-25T06:47:34;23.17;;;6.77;;
17251;SDS011;8742;51.716;8.790;2023-04-25T06:50:02;21.73;;;5.83;;
17251;SDS011;8742;51.716;8.790;2023-04-25T06:52:30;23.73;;;5.93;;
17251;SDS011;8742;51.716;8.790;2023-04-25T06:54:57;26.13;;;6.43;;
17251;SDS011;8742;51.716;8.790;2023-04-25T06:57:24;24.57;;;5.20;;
17251;SDS011;8742;51.716;8.790;2023-04-25T06:59:51;20.23;;;5.67;;
17251;SDS011;8742;51.716;8.790;2023-04-25T07:02:18;30.43;;;6.03;;
17251;SDS011;8742;51.716;8.790;2023-04-25T07:04:46;22.40;;;5.90;;
17251;SDS011;8742;51.716;8.790;2023-04-25T07:07:14;29.03;;;6.10;;
17251;SDS011;8742;51.716;8.790;2023-04-25T07:09:42;23.67;;;5.77;;
17251;SDS011;8742;51.716;8.790;2023-04-25T07:12:08;16.80;;;5.43;;
17251;SDS011;8742;51.716;8.790;2023-04-25T07:14:35;22.47;;;5.27;;
17251;SDS011;8742;51.716;8.790;2023-04-25T07:17:02;17.93;;;4.97;;
17251;SDS011;8742;51.716;8.790;2023-04-25T07:19:31;20.03;;;5.37;;
17251;SDS011;8742;51.716;8.790;2023-04-25T07:21:58;17.00;;;4.33;;
17251;SDS011;8742;51.716;8.790;2023-04-25T07:24:26;24.27;;;5.37;;
17251;SDS011;8742;51.716;8.790;2023-04-25T07:26:53;16.43;;;5.27;;
17251;SDS011;8742;51.716;8.790;2023-04-25T07:29:20;25.67;;;4.73;;
17251;SDS011;8742;51.716;8.790;2023-04-25T07:31:47;14.30;;;4.23;;
17251;SDS011;8742;51.716;8.790;2023-04-25T07:34:14;19.93;;;5.10;;
17251;SDS011;8742;51.716;8.790;2023-04-25T07:36:40;20.17;;;4.93;;
17251;SDS011;8742;51.716;8.790;2023-04-25T07:39:07;14.43;;;4.63;;
17251;SDS011;8742;51.716;8.790;2023-04-25T07:41:35;14.10;;;4.33;;
17251;SDS011;8742;51.716;8.790;2023-04-25T07:44:02;22.10;;;4.53;;
17251;SDS011;8742;51.716;8.790;2023-04-25T07:46:29;24.27;;;4.50;;
17251;SDS011;8742;51.716;8.790;2023-04-25T07:48:56;19.80;;;4.13;;
17251;SDS011;8742;51.716;8.790;2023-04-25T07:51:23;19.03;;;4.70;;
17251;SDS011;8742;51.716;8.790;2023-04-25T07:53:50;14.53;;;4.20;;
17251;SDS011;8742;51.716;8.790;2023-04-25T07:56:17;16.47;;;4.33;;
17251;SDS011;8742;51.716;8.790;2023-04-25T07:58:45;20.33;;;4.53;;
17251;SDS011;8742;51.716;8.790;2023-04-25T08:01:12;16.60;;;4.57;;
17251;SDS011;8742;51.716;8.790;2023-04-25T08:03:39;26.47;;;5.00;;
17251;SDS011;8742;51.716;8.790;2023-04-25T08:06:06;17.23;;;4.80;;
17251;SDS011;8742;51.716;8.790;2023-04-25T08:08:33;22.73;;;4.57;;
17251;SDS011;8742;51.716;8.790;2023-04-25T08:11:00;15.93;;;4.30;;
17251;SDS011;8742;51.716;8.790;2023-04-25T08:13:27;18.93;;;4.17;;
17251;SDS011;8742;51.716;8.790;2023-04-25T08:15:55;13.87;;;3.63;;
17251;SDS011;8742;51.716;8.790;2023-04-25T08:18:22;14.83;;;4.07;;
17251;SDS011;8742;51.716;8.790;2023-04-25T08:20:49;12.87;;;4.03;;
17251;SDS011;8742;51.716;8.790;2023-04-25T08:23:15;12.73;;;3.40;;
17251;SDS011;8742;51.716;8.790;2023-04-25T08:25:42;16.77;;;3.83;;
17251;SDS011;8742;51.716;8.790;2023-04-25T08:28:09;13.03;;;3.73;;
17251;SDS011;8742;51.716;8.790;2023-04-25T08:30:36;11.03;;;3.80;;
17251;SDS011;8742;51.716;8.790;2023-04-25T08:33:04;12.53;;;4.30;;
17251;SDS011;8742;51.716;8.790;2023-04-25T08:35:31;16.10;;;3.87;;
17251;SDS011;8742;51.716;8.790;2023-04-25T08:37:59;18.37;;;4.13;;
17251;SDS011;8742;51.716;8.790;2023-04-25T08:40:26;10.50;;;3.37;;
17251;SDS011;8742;51.716;8.790;2023-04-25T08:42:55;14.37;;;3.20;;
17251;SDS011;8742;51.716;8.790;2023-04-25T08:45:23;6.30;;;3.03;;
17251;SDS011;8742;51.716;8.790;2023-04-25T08:47:53;15.17;;;3.93;;
17251;SDS011;8742;51.716;8.790;2023-04-25T08:50:23;7.03;;;2.73;;
17251;SDS011;8742;51.716;8.790;2023-04-25T08:52:51;15.77;;;3.27;;
17251;SDS011;8742;51.716;8.790;2023-04-25T08:55:20;7.00;;;2.90;;
17251;SDS011;8742;51.716;8.790;2023-04-25T08:57:47;13.27;;;3.23;;
17251;SDS011;8742;51.716;8.790;2023-04-25T09:00:15;8.00;;;2.77;;
17251;SDS011;8742;51.716;8.790;2023-04-25T09:02:44;11.23;;;3.37;;
17251;SDS011;8742;51.716;8.790;2023-04-25T09:05:13;13.70;;;3.20;;
17251;SDS011;8742;51.716;8.790;2023-04-25T09:07:41;12.93;;;3.57;;
17251;SDS011;8742;51.716;8.790;2023-04-25T09:10:08;9.60;;;3.27;;
17251;SDS011;8742;51.716;8.790;2023-04-25T09:12:35;13.70;;;3.27;;
17251;SDS011;8742;51.716;8.790;2023-04-25T09:15:03;9.60;;;3.10;;
17251;SDS011;8742;51.716;8.790;2023-04-25T09:17:32;8.57;;;3.27;;
17251;SDS011;8742;51.716;8.790;2023-04-25T09:20:05;11.90;;;3.23;;
17251;SDS011;8742;51.716;8.790;2023-04-25T09:22:33;7.53;;;3.07;;
17251;SDS011;8742;51.716;8.790;2023-04-25T09:25:03;12.63;;;2.60;;
17251;SDS011;8742;51.716;8.790;2023-04-25T09:27:34;9.77;;;2.93;;
17251;SDS011;8742;51.716;8.790;2023-04-25T09:30:01;8.93;;;2.43;;
17251;SDS011;8742;51.716;8.790;2023-04-25T09:32:28;9.67;;;2.20;;
17251;SDS011;8742;51.716;8.790;2023-04-25T09:34:55;11.90;;;3.20;;
17251;SDS011;8742;51.716;8.790;2023-04-25T09:37:23;6.13;;;2.43;;
17251;SDS011;8742;51.716;8.790;2023-04-25T09:39:52;13.23;;;2.83;;
17251;SDS011;8742;51.716;8.790;2023-04-25T09:42:23;6.77;;;2.53;;
17251;SDS011;8742;51.716;8.790;2023-04-25T09:44:51;11.50;;;2.77;;
17251;SDS011;8742;51.716;8.790;2023-04-25T09:47:19;9.33;;;2.80;;
17251;SDS011;8742;51.716;8.790;2023-04-25T09:49:48;7.90;;;2.37;;
17251;SDS011;8742;51.716;8.790;2023-04-25T09:52:16;8.90;;;2.63;;
17251;SDS011;8742;51.716;8.790;2023-04-25T09:54:44;10.90;;;2.40;;
17251;SDS011;8742;51.716;8.790;2023-04-25T09:57:12;6.70;;;2.40;;
17251;SDS011;8742;51.716;8.790;2023-04-25T09:59:44;6.03;;;2.40;;
17251;SDS011;8742;51.716;8.790;2023-04-25T10:02:12;10.80;;;2.30;;
17251;SDS011;8742;51.716;8.790;2023-04-25T10:04:41;16.07;;;3.03;;
17251;SDS011;8742;51.716;8.790;2023-04-25T10:07:10;7.97;;;2.90;;
17251;SDS011;8742;51.716;8.790;2023-04-25T10:09:38;8.20;;;2.53;;
17251;SDS011;8742;51.716;8.790;2023-04-25T10:12:06;9.87;;;2.53;;
17251;SDS011;8742;51.716;8.790;2023-04-25T10:14:33;8.70;;;2.40;;
17251;SDS011;8742;51.716;8.790;2023-04-25T10:17:02;8.63;;;2.80;;
17251;SDS011;8742;51.716;8.790;2023-04-25T10:19:29;7.23;;;2.37;;
17251;SDS011;8742;51.716;8.790;2023-04-25T10:22:00;8.63;;;2.20;;
17251;SDS011;8742;51.716;8.790;2023-04-25T10:24:33;7.47;;;2.40;;
17251;SDS011;8742;51.716;8.790;2023-04-25T10:27:01;6.83;;;1.90;;
17251;SDS011;8742;51.716;8.790;2023-04-25T10:29:29;3.40;;;2.07;;
17251;SDS011;8742;51.716;8.790;2023-04-25T10:31:55;5.67;;;2.50;;
17251;SDS011;8742;51.716;8.790;2023-04-25T10:34:37;10.10;;;2.70;;
17251;SDS011;8742;51.716;8.790;2023-04-25T10:37:05;4.03;;;1.97;;
17251;SDS011;8742;51.716;8.790;2023-04-25T10:39:35;3.73;;;1.90;;
17251;SDS011;8742;51.716;8.790;2023-04-25T10:42:03;6.97;;;1.90;;
17251;SDS011;8742;51.716;8.790;2023-04-25T10:44:31;5.90;;;1.97;;
17251;SDS011;8742;51.716;8.790;2023-04-25T10:46:58;8.57;;;2.10;;
17251;SDS011;8742;51.716;8.790;2023-04-25T10:49:31;5.93;;;1.90;;
17251;SDS011;8742;51.716;8.790;2023-04-25T10:52:12;7.33;;;1.93;;
17251;SDS011;8742;51.716;8.790;2023-04-25T10:54:40;3.50;;;1.90;;
17251;SDS011;8742;51.716;8.790;2023-04-25T10:59:54;3.17;;;1.90;;
17251;SDS011;8742;51.716;8.790;2023-04-25T11:02:26;4.83;;;2.13;;
17251;SDS011;8742;51.716;8.790;2023-04-25T11:04:55;7.97;;;1.87;;
17251;SDS011;8742;51.716;8.790;2023-04-25T11:07:23;4.30;;;1.73;;
17251;SDS011;8742;51.716;8.790;2023-04-25T11:10:01;6.07;;;2.17;;
17251;SDS011;8742;51.716;8.790;2023-04-25T11:12:29;5.90;;;2.40;;
17251;SDS011;8742;51.716;8.790;2023-04-25T11:15:01;5.00;;;2.17;;
17251;SDS011;8742;51.716;8.790;2023-04-25T11:17:29;4.33;;;2.30;;
17251;SDS011;8742;51.716;8.790;2023-04-25T11:19:57;5.37;;;2.03;;
17251;SDS011;8742;51.716;8.790;2023-04-25T11:22:25;9.20;;;2.67;;
17251;SDS011;8742;51.716;8.790;2023-04-25T11:24:53;11.40;;;3.00;;
17251;SDS011;8742;51.716;8.790;2023-04-25T11:27:20;6.07;;;2.63;;
17251;SDS011;8742;51.716;8.790;2023-04-25T11:29:49;6.63;;;2.00;;
17251;SDS011;8742;51.716;8.790;2023-04-25T11:32:17;9.93;;;2.07;;
17251;SDS011;8742;51.716;8.790;2023-04-25T11:34:45;8.50;;;2.47;;
17251;SDS011;8742;51.716;8.790;2023-04-25T11:37:14;3.03;;;2.03;;
17251;SDS011;8742;51.716;8.790;2023-04-25T11:39:45;6.97;;;2.37;;
17251;SDS011;8742;51.716;8.790;2023-04-25T11:42:12;9.23;;;2.63;;
17251;SDS011;8742;51.716;8.790;2023-04-25T11:44:39;4.97;;;2.10;;
17251;SDS011;8742;51.716;8.790;2023-04-25T11:47:06;4.17;;;1.63;;
17251;SDS011;8742;51.716;8.790;2023-04-25T11:49:33;7.43;;;2.13;;
17251;SDS011;8742;51.716;8.790;2023-04-25T11:52:01;5.77;;;2.17;;
17251;SDS011;8742;51.716;8.790;2023-04-25T11:54:29;11.27;;;2.57;;
17251;SDS011;8742;51.716;8.790;2023-04-25T11:56:56;12.33;;;2.47;;
17251;SDS011;8742;51.716;8.790;2023-04-25T11:59:23;4.73;;;2.07;;
17251;SDS011;8742;51.716;8.790;2023-04-25T12:01:51;6.53;;;2.43;;
17251;SDS011;8742;51.716;8.790;2023-04-25T12:04:20;3.60;;;2.30;;
17251;SDS011;8742;51.716;8.790;2023-04-25T12:06:48;5.00;;;2.27;;
17251;SDS011;8742;51.716;8.790;2023-04-25T12:09:16;4.63;;;2.30;;
17251;SDS011;8742;51.716;8.790;2023-04-25T12:11:46;4.53;;;2.03;;
17251;SDS011;8742;51.716;8.790;2023-04-25T12:14:20;5.30;;;1.87;;
17251;SDS011;8742;51.716;8.790;2023-04-25T12:16:49;7.73;;;1.83;;
17251;SDS011;8742;51.716;8.790;2023-04-25T12:19:17;4.90;;;1.70;;
17251;SDS011;8742;51.716;8.790;2023-04-25T12:21:45;4.53;;;1.87;;
17251;SDS011;8742;51.716;8.790;2023-04-25T12:24:12;3.27;;;1.57;;
17251;SDS011;8742;51.716;8.790;2023-04-25T12:29:28;5.03;;;1.53;;
17251;SDS011;8742;51.716;8.790;2023-04-25T12:31:56;5.80;;;1.80;;
17251;SDS011;8742;51.716;8.790;2023-04-25T12:34:23;4.13;;;1.90;;
17251;SDS011;8742;51.716;8.790;2023-04-25T12:36:51;3.43;;;1.70;;
17251;SDS011;8742;51.716;8.790;2023-04-25T12:39:18;5.80;;;1.83;;
17251;SDS011;8742;51.716;8.790;2023-04-25T12:41:47;3.53;;;1.73;;
17251;SDS011;8742;51.716;8.790;2023-04-25T12:44:15;5.33;;;2.03;;
17251;SDS011;8742;51.716;8.790;2023-04-25T12:46:43;4.60;;;2.07;;
17251;SDS011;8742;51.716;8.790;2023-04-25T12:49:10;5.50;;;2.07;;
17251;SDS011;8742;51.716;8.790;2023-04-25T12:51:37;5.63;;;2.20;;
17251;SDS011;8742;51.716;8.790;2023-04-25T12:54:04;3.10;;;2.10;;
17251;SDS011;8742;51.716;8.790;2023-04-25T12:56:32;5.93;;;2.50;;
17251;SDS011;8742;51.716;8.790;2023-04-25T12:58:58;4.67;;;2.37;;
17251;SDS011;8742;51.716;8.790;2023-04-25T13:01:27;4.23;;;2.10;;
17251;SDS011;8742;51.716;8.790;2023-04-25T13:03:54;10.20;;;2.47;;
17251;SDS011;8742;51.716;8.790;2023-04-25T13:06:21;5.17;;;1.83;;
17251;SDS011;8742;51.716;8.790;2023-04-25T13:08:48;4.97;;;2.23;;
17251;SDS011;8742;51.716;8.790;2023-04-25T13:11:15;3.80;;;1.93;;
17251;SDS011;8742;51.716;8.790;2023-04-25T13:13:42;4.03;;;2.07;;
17251;SDS011;8742;51.716;8.790;2023-04-25T13:16:10;11.70;;;2.20;;
17251;SDS011;8742;51.716;8.790;2023-04-25T13:18:40;6.20;;;2.30;;
17251;SDS011;8742;51.716;8.790;2023-04-25T13:21:07;4.07;;;1.70;;
17251;SDS011;8742;51.716;8.790;2023-04-25T13:23:35;4.50;;;1.80;;
17251;SDS011;8742;51.716;8.790;2023-04-25T13:26:02;7.20;;;2.37;;
17251;SDS011;8742;51.716;8.790;2023-04-25T13:28:29;6.33;;;2.30;;
17251;SDS011;8742;51.716;8.790;2023-04-25T13:30:56;5.13;;;2.03;;
17251;SDS011;8742;51.716;8.790;2023-04-25T13:33:23;6.07;;;2.20;;
17251;SDS011;8742;51.716;8.790;2023-04-25T13:35:52;3.93;;;2.13;;
17251;SDS011;8742;51.716;8.790;2023-04-25T13:38:21;2.70;;;1.77;;
17251;SDS011;8742;51.716;8.790;2023-04-25T13:40:48;7.83;;;2.37;;
17251;SDS011;8742;51.716;8.790;2023-04-25T13:43:18;3.10;;;2.07;;
17251;SDS011;8742;51.716;8.790;2023-04-25T13:45:45;3.47;;;1.80;;
17251;SDS011;8742;51.716;8.790;2023-04-25T13:48:12;6.38;;;2.60;;
17251;SDS011;8742;51.716;8.790;2023-04-25T13:50:39;4.60;;;2.30;;
17251;SDS011;8742;51.716;8.790;2023-04-25T13:53:07;4.07;;;2.42;;
17251;SDS011;8742;51.716;8.790;2023-04-25T13:55:34;5.35;;;2.10;;
17251;SDS011;8742;51.716;8.790;2023-04-25T13:58:01;4.85;;;2.00;;
17251;SDS011;8742;51.716;8.790;2023-04-25T14:00:32;5.78;;;2.08;;
17251;SDS011;8742;51.716;8.790;2023-04-25T14:03:00;4.22;;;2.10;;
17251;SDS011;8742;51.716;8.790;2023-04-25T14:05:29;4.20;;;2.43;;
17251;SDS011;8742;51.716;8.790;2023-04-25T14:07:57;5.70;;;1.85;;
17251;SDS011;8742;51.716;8.790;2023-04-25T14:10:26;3.10;;;1.75;;
17251;SDS011;8742;51.716;8.790;2023-04-25T14:12:52;7.15;;;2.35;;
17251;SDS011;8742;51.716;8.790;2023-04-25T14:15:19;1.40;;;1.15;;
17251;SDS011;8742;51.716;8.790;2023-04-25T14:17:46;2.75;;;1.50;;
17251;SDS011;8742;51.716;8.790;2023-04-25T14:20:14;2.47;;;1.53;;
17251;SDS011;8742;51.716;8.790;2023-04-25T14:22:40;6.30;;;1.53;;
17251;SDS011;8742;51.716;8.790;2023-04-25T14:25:08;1.40;;;1.30;;
17251;SDS011;8742;51.716;8.790;2023-04-25T14:27:37;3.83;;;1.87;;
17251;SDS011;8742;51.716;8.790;2023-04-25T14:30:04;3.67;;;1.43;;
17251;SDS011;8742;51.716;8.790;2023-04-25T14:32:33;3.77;;;1.63;;
17251;SDS011;8742;51.716;8.790;2023-04-25T14:35:00;3.63;;;1.60;;
17251;SDS011;8742;51.716;8.790;2023-04-25T14:37:27;3.20;;;1.60;;
17251;SDS011;8742;51.716;8.790;2023-04-25T14:39:54;3.90;;;1.83;;
17251;SDS011;8742;51.716;8.790;2023-04-25T14:42:21;3.10;;;1.50;;
17251;SDS011;8742;51.716;8.790;2023-04-25T14:44:49;3.23;;;1.70;;
17251;SDS011;8742;51.716;8.790;2023-04-25T14:47:16;3.47;;;1.77;;
17251;SDS011;8742;51.716;8.790;2023-04-25T14:49:43;3.93;;;1.50;;
17251;SDS011;8742;51.716;8.790;2023-04-25T14:52:16;3.60;;;1.40;;
17251;SDS011;8742;51.716;8.790;2023-04-25T14:54:42;2.60;;;1.53;;
17251;SDS011;8742;51.716;8.790;2023-04-25T14:57:09;4.73;;;1.67;;
17251;SDS011;8742;51.716;8.790;2023-04-25T14:59:36;4.47;;;2.00;;